Time;durP1;ratioP1;P1;durP2;ratioP2;P2;SDS_P1;SDS_P2;PMS_P1;PMS_P2;Temp;Humidity;BMP_temperature;BMP_pressure;BME280_temperature;BME280_humidity;BME280_pressure;Samples;Min_cycle;Max_cycle;Signal;HPM_P1;HPM_P2
2024/04/09 00:00:51;;;;;;;19.13;11.43;;;14.60;99.90;;;;;;5353762;26;20464;-68
2024/04/09 00:03:17;;;;;;;13.77;10.35;;;14.60;99.90;;;;;;5344831;26;20507;-68
2024/04/09 00:05:43;;;;;;;17.17;12.40;;;14.60;99.90;;;;;;5346686;26;20004;-68
2024/04/09 00:08:14;;;;;;;16.15;11.13;;;14.60;99.90;;;;;;5348937;26;20101;-69
2024/04/09 00:10:40;;;;;;;15.75;12.23;;;14.60;99.90;;;;;;5342904;26;20005;-68
2024/04/09 00:13:06;;;;;;;16.35;11.52;;;14.50;99.90;;;;;;5350952;26;20360;-68
2024/04/09 00:15:36;;;;;;;15.45;11.57;;;14.50;99.90;;;;;;5337224;26;20071;-68
2024/04/09 00:18:11;;;;;;;14.98;11.30;;;14.50;99.90;;;;;;5353405;26;20001;-69
2024/04/09 00:20:39;;;;;;;17.33;12.05;;;14.50;99.90;;;;;;5351797;26;20011;-69
2024/04/09 00:23:05;;;;;;;17.08;12.38;;;14.60;99.90;;;;;;5346105;26;20013;-69
2024/04/09 00:25:31;;;;;;;22.77;12.23;;;14.60;99.90;;;;;;5360997;26;20005;-68
2024/04/09 00:27:59;;;;;;;13.95;11.57;;;14.60;99.90;;;;;;5340781;26;20028;-69
2024/04/09 00:30:27;;;;;;;18.45;12.88;;;14.60;99.90;;;;;;5347508;26;20411;-68
2024/04/09 00:32:53;;;;;;;16.50;10.98;;;14.60;99.90;;;;;;5347828;26;20017;-69
2024/04/09 00:35:21;;;;;;;14.80;11.90;;;14.50;99.90;;;;;;5355073;26;20004;-69
2024/04/09 00:37:51;;;;;;;15.43;12.15;;;14.50;99.90;;;;;;5344769;26;20001;-69
2024/04/09 00:40:19;;;;;;;20.50;11.45;;;14.60;99.90;;;;;;5352643;26;20580;-68
2024/04/09 00:42:49;;;;;;;15.77;10.93;;;14.50;99.90;;;;;;5357823;26;20000;-68
2024/04/09 00:45:17;;;;;;;14.50;11.73;;;14.60;99.90;;;;;;5348389;26;20081;-69
2024/04/09 00:47:46;;;;;;;16.25;12.10;;;14.60;99.90;;;;;;5351883;26;20000;-69
2024/04/09 00:50:12;;;;;;;14.68;11.25;;;14.60;99.90;;;;;;5349503;26;20040;-69
2024/04/09 00:52:42;;;;;;;14.93;10.68;;;14.60;99.90;;;;;;5351341;26;20005;-68
2024/04/09 00:55:11;;;;;;;18.55;11.80;;;14.60;99.90;;;;;;5335025;26;20015;-69
2024/04/09 00:57:39;;;;;;;15.32;10.20;;;14.60;99.90;;;;;;5342783;26;20005;-68
2024/04/09 01:00:12;;;;;;;15.73;10.77;;;14.60;99.90;;;;;;5352869;26;20012;-68
2024/04/09 01:02:38;;;;;;;15.75;10.35;;;14.60;99.90;;;;;;5342416;26;20020;-68
2024/04/09 01:05:05;;;;;;;14.32;10.77;;;14.60;99.90;;;;;;5348011;26;20025;-69
2024/04/09 01:07:32;;;;;;;13.45;10.88;;;14.60;99.90;;;;;;5349656;26;20566;-68
2024/04/09 01:09:58;;;;;;;14.48;10.90;;;14.60;99.90;;;;;;5349867;26;20016;-68
2024/04/09 01:12:24;;;;;;;15.23;11.13;;;14.70;99.90;;;;;;5354084;26;20014;-69
2024/04/09 01:14:51;;;;;;;16.67;11.38;;;14.60;99.90;;;;;;5340376;26;20028;-68
2024/04/09 01:17:16;;;;;;;15.70;11.43;;;14.60;99.90;;;;;;5334580;26;20012;-68
2024/04/09 01:19:42;;;;;;;14.57;10.38;;;14.60;99.90;;;;;;5345944;26;20397;-68
2024/04/09 01:22:08;;;;;;;17.38;11.20;;;14.60;99.90;;;;;;5343726;26;20649;-69
2024/04/09 01:24:34;;;;;;;17.45;10.57;;;14.60;99.90;;;;;;5343564;26;20407;-68
2024/04/09 01:27:05;;;;;;;15.77;11.07;;;14.60;99.90;;;;;;5344182;26;20877;-68
2024/04/09 01:29:31;;;;;;;;;;;14.60;99.90;;;;;;5344981;26;20004;-68
2024/04/09 01:31:57;;;;;;;17.65;11.05;;;14.60;99.90;;;;;;5344948;26;19925;-69
2024/04/09 01:34:23;;;;;;;14.15;10.35;;;14.60;99.90;;;;;;5346526;26;19993;-69
2024/04/09 01:36:48;;;;;;;13.73;10.35;;;14.60;99.90;;;;;;5335706;26;20429;-68
2024/04/09 01:39:15;;;;;;;16.13;11.25;;;14.60;99.90;;;;;;5344233;26;20344;-69
2024/04/09 01:41:41;;;;;;;17.10;11.32;;;14.60;99.90;;;;;;5354514;26;20074;-68
2024/04/09 01:44:08;;;;;;;15.98;10.63;;;14.60;99.90;;;;;;5345355;26;19996;-68
2024/04/09 01:46:34;;;;;;;15.18;10.50;;;14.60;99.90;;;;;;5350522;26;20338;-68
2024/04/09 01:49:00;;;;;;;16.98;11.85;;;14.60;99.90;;;;;;5350778;26;20001;-68
2024/04/09 01:51:25;;;;;;;14.88;10.50;;;14.60;99.90;;;;;;5342457;26;20326;-69
2024/04/09 01:53:52;;;;;;;17.80;11.07;;;14.60;99.90;;;;;;5335653;26;19998;-68
2024/04/09 01:56:18;;;;;;;20.15;11.18;;;14.60;99.90;;;;;;5333219;26;20016;-69
2024/04/09 01:58:46;;;;;;;16.02;10.35;;;14.60;99.90;;;;;;5350047;26;20011;-69
2024/04/09 02:01:11;;;;;;;17.05;10.70;;;14.60;99.90;;;;;;5356191;26;20005;-68
2024/04/09 02:03:38;;;;;;;15.65;10.85;;;14.60;99.90;;;;;;5355821;26;19997;-69
2024/04/09 02:06:05;;;;;;;15.85;10.80;;;14.60;99.90;;;;;;5351822;26;20447;-69
2024/04/09 02:08:32;;;;;;;13.73;10.25;;;14.60;99.90;;;;;;5350890;26;20071;-68
2024/04/09 02:10:59;;;;;;;13.90;10.20;;;14.60;99.90;;;;;;5344055;26;20015;-69
2024/04/09 02:13:25;;;;;;;13.98;9.73;;;14.60;99.90;;;;;;5349583;26;19997;-68
2024/04/09 02:15:52;;;;;;;15.55;9.60;;;14.60;99.90;;;;;;5326529;26;20020;-69
2024/04/09 02:18:17;;;;;;;15.38;9.90;;;14.60;99.90;;;;;;5344319;26;19997;-69
2024/04/09 02:20:47;;;;;;;15.82;9.52;;;14.60;99.90;;;;;;5347626;26;20569;-68
2024/04/09 02:23:13;;;;;;;13.20;8.88;;;14.60;99.90;;;;;;5347432;26;20013;-68
2024/04/09 02:25:42;;;;;;;14.20;9.18;;;14.60;99.90;;;;;;5348971;26;20022;-68
2024/04/09 02:28:08;;;;;;;15.82;9.65;;;14.60;99.90;;;;;;5349596;26;20119;-68
2024/04/09 02:30:34;;;;;;;15.38;9.10;;;14.60;99.90;;;;;;5354591;26;20473;-68
2024/04/09 02:33:00;;;;;;;19.35;8.65;;;14.60;99.90;;;;;;5344107;26;20035;-68
2024/04/09 02:35:26;;;;;;;16.08;8.80;;;14.60;99.90;;;;;;5345866;26;20011;-69
2024/04/09 02:37:52;;;;;;;14.90;8.93;;;14.60;99.90;;;;;;5354891;26;20012;-69
2024/04/09 02:40:17;;;;;;;12.25;8.48;;;14.60;99.90;;;;;;5347520;26;20000;-69
2024/04/09 02:42:44;;;;;;;12.50;8.35;;;14.60;99.90;;;;;;5352335;26;20347;-68
2024/04/09 02:45:10;;;;;;;14.98;9.32;;;14.60;99.90;;;;;;5345562;26;20005;-68
2024/04/09 02:47:37;;;;;;;14.65;8.93;;;14.60;99.90;;;;;;5348253;26;20005;-69
2024/04/09 02:50:03;;;;;;;17.58;8.65;;;14.70;99.90;;;;;;5343640;26;20015;-68
2024/04/09 02:52:32;;;;;;;15.20;7.82;;;14.60;99.90;;;;;;5344397;26;20402;-69
2024/04/09 02:54:59;;;;;;;12.77;7.57;;;14.70;99.90;;;;;;5332674;26;20023;-69
2024/04/09 02:57:24;;;;;;;16.45;7.60;;;14.60;99.90;;;;;;5335951;26;20781;-69
2024/04/09 02:59:53;;;;;;;16.20;7.40;;;14.70;99.90;;;;;;5346363;26;20033;-69
2024/04/09 03:02:19;;;;;;;15.45;7.03;;;14.70;99.90;;;;;;5345669;26;20048;-69
2024/04/09 03:04:45;;;;;;;17.73;7.43;;;14.70;99.90;;;;;;5347660;26;20294;-69
2024/04/09 03:07:11;;;;;;;16.80;7.35;;;14.70;99.90;;;;;;5350445;26;20001;-68
2024/04/09 03:09:37;;;;;;;15.52;7.20;;;14.70;99.90;;;;;;5347372;26;20001;-69
2024/04/09 03:12:03;;;;;;;16.40;7.18;;;14.70;99.90;;;;;;5345340;26;19997;-69
2024/04/09 03:14:31;;;;;;;14.05;6.75;;;14.80;99.90;;;;;;5338514;26;20012;-65
2024/04/09 03:17:01;;;;;;;18.27;7.00;;;14.80;99.90;;;;;;5330204;26;20001;-65
2024/04/09 03:19:29;;;;;;;16.88;6.80;;;14.80;99.90;;;;;;5347193;26;20008;-65
2024/04/09 03:21:55;;;;;;;13.65;6.70;;;14.70;99.90;;;;;;5343505;26;20023;-65
2024/04/09 03:24:20;;;;;;;15.75;6.80;;;14.80;99.90;;;;;;5349745;26;20001;-65
2024/04/09 03:26:46;;;;;;;15.73;6.40;;;14.80;99.90;;;;;;5339076;26;20350;-65
2024/04/09 03:29:13;;;;;;;14.73;6.30;;;14.80;99.90;;;;;;5340945;26;20013;-64
2024/04/09 03:31:38;;;;;;;18.10;6.35;;;14.80;99.90;;;;;;5340901;26;20477;-65
2024/04/09 03:34:04;;;;;;;13.00;6.13;;;14.80;99.90;;;;;;5335992;26;20020;-65
2024/04/09 03:36:30;;;;;;;12.70;5.80;;;14.80;99.90;;;;;;5332076;26;20013;-65
2024/04/09 03:38:55;;;;;;;12.00;6.15;;;14.80;99.90;;;;;;5345984;26;20472;-65
2024/04/09 03:41:21;;;;;;;16.30;6.13;;;14.80;99.90;;;;;;5345140;26;20037;-65
2024/04/09 03:43:47;;;;;;;15.30;5.72;;;14.70;99.90;;;;;;5350533;26;20004;-65
2024/04/09 03:46:15;;;;;;;14.45;5.78;;;14.70;99.90;;;;;;5347115;26;20099;-65
2024/04/09 03:48:43;;;;;;;15.82;5.85;;;14.70;99.90;;;;;;5348023;26;20464;-65
2024/04/09 03:51:14;;;;;;;14.90;5.68;;;14.70;99.90;;;;;;5352457;26;19997;-65
2024/04/09 03:53:40;;;;;;;12.98;5.75;;;14.70;99.90;;;;;;5346755;26;20008;-64
2024/04/09 03:56:06;;;;;;;12.82;5.75;;;14.60;99.90;;;;;;5346739;26;20012;-65
2024/04/09 03:58:37;;;;;;;13.77;5.13;;;14.60;99.90;;;;;;5349931;26;20016;-65
2024/04/09 04:01:04;;;;;;;13.98;5.00;;;14.60;99.90;;;;;;5347942;26;20012;-66
2024/04/09 04:03:31;;;;;;;13.40;5.53;;;14.60;99.90;;;;;;5341556;26;20328;-64
2024/04/09 04:05:58;;;;;;;11.93;4.68;;;14.60;99.90;;;;;;5350378;26;20319;-65
2024/04/09 04:08:31;;;;;;;21.17;6.05;;;14.60;99.90;;;;;;5351918;26;20357;-65
2024/04/09 04:13:27;;;;;;;12.95;5.40;;;14.50;99.90;;;;;;5327035;26;20023;-61
2024/04/09 04:16:07;;;;;;;15.27;5.15;;;14.50;99.90;;;;;;5336722;26;20007;-61
2024/04/09 04:18:41;;;;;;;16.92;5.70;;;14.50;99.90;;;;;;5324831;26;20024;-61
2024/04/09 04:21:09;;;;;;;15.80;5.40;;;14.50;99.90;;;;;;5328059;26;20069;-61
2024/04/09 04:23:34;;;;;;;13.05;5.88;;;14.50;99.90;;;;;;5337479;26;20001;-61
2024/04/09 04:26:03;;;;;;;15.48;6.38;;;14.50;99.90;;;;;;5340072;26;20471;-61
2024/04/09 04:28:40;;;;;;;15.05;5.47;;;14.50;99.90;;;;;;5338052;26;19997;-62
2024/04/09 04:31:16;;;;;;;19.52;5.90;;;14.50;99.90;;;;;;5338898;26;20344;-62
2024/04/09 04:33:46;;;;;;;18.13;5.47;;;14.50;99.90;;;;;;5336217;26;20024;-62
2024/04/09 04:36:13;;;;;;;14.95;5.32;;;14.50;99.90;;;;;;5334295;26;20016;-62
2024/04/09 04:38:40;;;;;;;18.35;5.55;;;14.50;99.90;;;;;;5338219;26;20001;-62
2024/04/09 04:41:06;;;;;;;22.70;6.10;;;14.60;99.90;;;;;;5338187;26;20461;-62
2024/04/09 04:43:33;;;;;;;16.75;5.72;;;14.50;99.90;;;;;;5339800;26;20029;-62
2024/04/09 04:45:59;;;;;;;18.83;5.38;;;14.50;99.90;;;;;;5334367;26;20026;-62
2024/04/09 04:48:25;;;;;;;18.25;5.30;;;14.60;99.90;;;;;;5337158;26;20005;-62
2024/04/09 04:50:52;;;;;;;21.67;5.10;;;14.50;99.90;;;;;;5340043;26;20001;-62
2024/04/09 04:53:18;;;;;;;18.70;4.97;;;14.60;99.90;;;;;;5337779;26;20476;-62
2024/04/09 04:55:44;;;;;;;16.95;5.40;;;14.60;99.90;;;;;;5332851;26;20013;-62
2024/04/09 04:58:10;;;;;;;16.75;4.88;;;14.60;99.90;;;;;;5336680;26;20079;-62
2024/04/09 05:00:36;;;;;;;19.13;5.28;;;14.60;99.90;;;;;;5337363;26;20023;-62
2024/04/09 05:03:02;;;;;;;20.33;5.63;;;14.60;99.90;;;;;;5339862;26;20459;-62
2024/04/09 05:05:28;;;;;;;21.25;6.07;;;14.60;99.90;;;;;;5333823;26;20012;-62
2024/04/09 05:07:55;;;;;;;19.13;5.75;;;14.60;99.90;;;;;;5340678;26;20004;-62
2024/04/09 05:10:22;;;;;;;18.30;5.78;;;14.60;99.90;;;;;;5336446;26;20005;-62
2024/04/09 05:12:49;;;;;;;21.83;5.72;;;14.60;99.90;;;;;;5339512;26;20008;-62
2024/04/09 05:15:16;;;;;;;20.38;5.95;;;14.60;99.90;;;;;;5330506;26;20787;-62
2024/04/09 05:17:43;;;;;;;17.60;6.10;;;14.70;99.90;;;;;;5353448;26;20011;-62
2024/04/09 05:20:14;;;;;;;17.10;6.55;;;14.70;99.90;;;;;;5335533;26;20120;-62
2024/04/09 05:22:49;;;;;;;21.33;7.30;;;14.70;99.90;;;;;;5333744;26;20012;-62
2024/04/09 05:25:17;;;;;;;23.67;6.43;;;14.70;99.90;;;;;;5331985;26;20009;-62
2024/04/09 05:27:44;;;;;;;20.77;6.90;;;14.70;99.90;;;;;;5334289;26;20353;-62
2024/04/09 05:30:10;;;;;;;23.25;7.10;;;14.80;99.90;;;;;;5332704;26;20015;-62
2024/04/09 05:32:43;;;;;;;18.20;6.38;;;14.80;99.90;;;;;;5329864;26;20776;-62
2024/04/09 05:35:10;;;;;;;17.60;6.35;;;14.80;99.90;;;;;;5336916;26;20009;-62
2024/04/09 05:37:36;;;;;;;20.15;6.53;;;14.80;99.90;;;;;;5336113;26;20020;-62
2024/04/09 05:40:04;;;;;;;16.42;6.43;;;14.90;99.90;;;;;;5336152;26;20005;-62
2024/04/09 05:42:30;;;;;;;16.15;6.60;;;14.90;99.90;;;;;;5339033;26;20009;-62
2024/04/09 05:44:55;;;;;;;17.27;6.30;;;14.90;99.90;;;;;;5336862;26;20015;-62
2024/04/09 05:47:24;;;;;;;16.23;6.40;;;14.90;99.90;;;;;;5334354;26;20008;-62
2024/04/09 05:49:50;;;;;;;15.27;6.78;;;14.90;99.90;;;;;;5339934;26;20015;-62
2024/04/09 05:52:16;;;;;;;15.02;6.15;;;15.00;99.90;;;;;;5337738;26;20005;-62
2024/04/09 05:54:44;;;;;;;14.80;6.07;;;14.90;99.90;;;;;;5340530;26;20016;-62
2024/04/09 05:57:11;;;;;;;14.95;5.95;;;14.90;99.90;;;;;;5359033;26;20373;-62
2024/04/09 05:59:37;;;;;;;15.10;5.90;;;14.90;99.90;;;;;;5332832;26;20004;-62
2024/04/09 06:02:03;;;;;;;13.18;5.90;;;15.00;99.90;;;;;;5335263;26;20020;-62
2024/04/09 06:04:30;;;;;;;15.68;6.20;;;15.00;99.90;;;;;;5335047;26;20017;-62
2024/04/09 06:06:56;;;;;;;15.73;6.00;;;15.00;99.90;;;;;;5337977;26;20021;-62
2024/04/09 06:09:22;;;;;;;13.55;5.88;;;14.90;99.90;;;;;;5340523;26;20020;-62
2024/04/09 06:11:48;;;;;;;14.35;5.85;;;14.90;99.90;;;;;;5329895;26;20033;-62
2024/04/09 06:14:15;;;;;;;14.73;5.63;;;14.90;99.90;;;;;;5337610;26;20009;-62
2024/04/09 06:16:40;;;;;;;12.82;5.90;;;14.90;99.90;;;;;;5339969;26;20016;-62
2024/04/09 06:19:06;;;;;;;12.50;5.75;;;14.80;99.90;;;;;;5337096;26;20070;-62
2024/04/09 06:21:32;;;;;;;11.23;5.40;;;14.80;99.90;;;;;;5356690;26;20015;-62
2024/04/09 06:23:57;;;;;;;12.70;4.93;;;14.90;99.90;;;;;;5336171;26;20028;-62
2024/04/09 06:26:23;;;;;;;12.05;4.95;;;14.80;99.90;;;;;;5329140;26;20001;-62
2024/04/09 06:28:51;;;;;;;12.98;5.35;;;14.80;99.90;;;;;;5333471;26;20000;-62
2024/04/09 06:31:17;;;;;;;12.32;5.20;;;14.80;99.90;;;;;;5327133;26;20383;-62
2024/04/09 06:33:52;;;;;;;11.75;5.13;;;14.80;99.90;;;;;;5320851;26;20472;-62
2024/04/09 06:36:29;;;;;;;9.75;4.82;;;14.80;99.90;;;;;;5303973;26;20033;-62
2024/04/09 06:39:02;;;;;;;11.07;4.80;;;14.80;99.90;;;;;;5337400;26;20473;-62
2024/04/09 06:41:32;;;;;;;14.75;5.07;;;14.80;99.90;;;;;;5335377;26;20029;-62
2024/04/09 06:43:57;;;;;;;9.13;4.88;;;14.80;99.90;;;;;;5340157;26;20072;-62
2024/04/09 06:46:23;;;;;;;9.48;4.90;;;14.80;99.90;;;;;;5327432;26;20016;-62
2024/04/09 06:48:49;;;;;;;11.70;5.05;;;14.80;99.90;;;;;;5337389;26;20016;-62
2024/04/09 06:51:15;;;;;;;9.68;5.30;;;14.80;99.90;;;;;;5328519;26;19998;-62
2024/04/09 06:53:41;;;;;;;13.95;5.68;;;14.90;99.90;;;;;;5320515;26;20197;-62
2024/04/09 06:56:07;;;;;;;13.20;5.63;;;14.90;99.90;;;;;;5339958;26;20019;-62
2024/04/09 06:58:34;;;;;;;13.90;5.22;;;14.90;99.90;;;;;;5338955;26;20013;-62
2024/04/09 07:01:00;;;;;;;11.75;5.20;;;14.90;99.90;;;;;;5340917;26;20001;-62
2024/04/09 07:03:25;;;;;;;10.93;5.80;;;14.90;99.90;;;;;;5339076;26;20437;-62
2024/04/09 07:05:51;;;;;;;10.63;5.70;;;14.90;99.90;;;;;;5323869;26;20019;-62
2024/04/09 07:08:17;;;;;;;13.50;5.90;;;14.90;99.90;;;;;;5330039;26;20013;-62
2024/04/09 07:10:43;;;;;;;10.02;5.93;;;14.90;99.90;;;;;;5293062;26;20036;-62
2024/04/09 07:13:08;;;;;;;11.85;6.32;;;14.90;99.90;;;;;;5332374;26;20005;-62
2024/04/09 07:15:34;;;;;;;15.38;6.35;;;14.90;99.90;;;;;;5361536;26;20030;-61
2024/04/09 07:18:00;;;;;;;12.07;6.05;;;14.90;99.90;;;;;;5338485;26;20001;-61
2024/04/09 07:20:26;;;;;;;13.07;6.22;;;14.90;99.90;;;;;;5341208;26;20392;-62
2024/04/09 07:22:51;;;;;;;14.48;5.93;;;14.90;99.90;;;;;;5338061;26;20090;-62
2024/04/09 07:25:17;;;;;;;9.88;5.90;;;14.90;99.90;;;;;;5331407;26;20365;-62
2024/04/09 07:27:43;;;;;;;9.52;5.88;;;14.90;99.90;;;;;;5331936;26;20368;-62
2024/04/09 07:30:09;;;;;;;12.80;5.93;;;14.90;99.90;;;;;;5335339;26;20480;-61
2024/04/09 07:32:35;;;;;;;14.77;6.38;;;14.90;99.90;;;;;;5338200;26;20897;-62
2024/04/09 07:35:01;;;;;;;14.35;6.30;;;14.90;99.90;;;;;;5331864;26;20469;-62
2024/04/09 07:37:27;;;;;;;13.77;6.03;;;15.00;99.90;;;;;;5338774;26;20001;-62
2024/04/09 07:39:52;;;;;;;12.77;5.93;;;15.00;99.90;;;;;;5349106;26;20055;-62
2024/04/09 07:42:18;;;;;;;11.10;6.43;;;15.00;99.90;;;;;;5343497;26;20367;-62
2024/04/09 07:44:44;;;;;;;11.95;6.70;;;15.00;99.90;;;;;;5334161;26;20050;-62
2024/04/09 07:47:10;;;;;;;13.32;7.00;;;15.00;99.90;;;;;;5338438;26;20019;-62
2024/04/09 07:49:37;;;;;;;12.48;6.50;;;15.10;99.90;;;;;;5338210;26;20005;-62
2024/04/09 07:52:04;;;;;;;13.02;6.30;;;15.10;99.90;;;;;;5338349;26;20504;-62
2024/04/09 07:54:30;;;;;;;11.02;6.75;;;15.10;99.90;;;;;;5335285;26;20074;-62
2024/04/09 07:56:55;;;;;;;13.65;6.65;;;15.00;99.90;;;;;;5338704;26;20472;-62
2024/04/09 07:59:22;;;;;;;16.55;7.30;;;15.00;99.90;;;;;;5336730;26;20041;-62
2024/04/09 08:01:49;;;;;;;12.48;7.32;;;15.00;99.90;;;;;;5343845;26;20731;-62
2024/04/09 08:04:14;;;;;;;9.15;6.63;;;15.10;99.90;;;;;;5343198;26;20008;-62
2024/04/09 08:06:40;;;;;;;10.80;6.88;;;15.10;99.90;;;;;;5329064;26;20016;-62
2024/04/09 08:09:10;;;;;;;14.40;7.25;;;15.20;99.90;;;;;;5337817;26;20004;-62
2024/04/09 08:11:41;;;;;;;16.58;7.80;;;15.20;99.90;;;;;;5333892;26;20020;-62
2024/04/09 08:14:11;;;;;;;11.50;7.05;;;15.10;99.90;;;;;;5333301;26;20389;-62
2024/04/09 08:16:37;;;;;;;10.70;6.90;;;15.10;99.90;;;;;;5340588;26;20009;-62
2024/04/09 08:19:03;;;;;;;15.85;7.20;;;15.20;99.90;;;;;;5343905;26;20115;-62
2024/04/09 08:21:30;;;;;;;11.80;6.70;;;15.20;99.90;;;;;;5342901;26;20329;-62
2024/04/09 08:23:56;;;;;;;11.30;7.00;;;15.20;99.90;;;;;;5343144;26;20001;-62
2024/04/09 08:26:23;;;;;;;11.48;6.88;;;15.20;99.90;;;;;;5340936;26;20085;-61
2024/04/09 08:28:52;;;;;;;14.20;7.20;;;15.20;99.90;;;;;;5335774;26;20575;-62
2024/04/09 08:31:33;;;;;;;15.85;7.43;;;15.20;99.90;;;;;;5339952;26;20005;-62
2024/04/09 08:33:59;;;;;;;13.88;7.07;;;15.20;99.90;;;;;;5338217;26;20023;-61
2024/04/09 08:36:27;;;;;;;15.68;7.03;;;15.20;99.90;;;;;;5338544;26;20005;-61
2024/04/09 08:38:53;;;;;;;13.63;7.40;;;15.20;99.90;;;;;;5343891;26;20348;-61
2024/04/09 08:41:20;;;;;;;11.15;7.72;;;15.20;99.90;;;;;;5346822;26;20001;-61
2024/04/09 08:43:48;;;;;;;11.93;6.95;;;15.20;99.90;;;;;;5337401;26;20011;-61
2024/04/09 08:46:14;;;;;;;10.18;7.05;;;15.10;99.90;;;;;;5331028;26;20031;-61
2024/04/09 08:48:40;;;;;;;9.55;6.72;;;15.20;99.90;;;;;;5336740;26;20777;-61
2024/04/09 08:51:10;;;;;;;14.40;7.68;;;15.20;99.90;;;;;;5345464;26;20537;-61
2024/04/09 08:53:37;;;;;;;12.15;8.15;;;15.20;99.90;;;;;;5337603;26;20009;-61
2024/04/09 08:56:04;;;;;;;12.15;7.82;;;15.10;99.90;;;;;;5340154;26;20013;-61
2024/04/09 08:58:30;;;;;;;13.20;8.30;;;15.20;99.90;;;;;;5341994;26;20001;-60
2024/04/09 09:00:56;;;;;;;14.50;9.05;;;15.20;99.90;;;;;;5341828;26;20067;-61
2024/04/09 09:03:21;;;;;;;13.40;8.60;;;15.20;99.90;;;;;;5339727;26;20016;-61
2024/04/09 09:06:01;;;;;;;14.13;8.88;;;15.10;99.90;;;;;;5334322;26;20353;-61
2024/04/09 09:08:37;;;;;;;17.58;9.35;;;15.20;99.90;;;;;;5332793;26;20019;-61
2024/04/09 09:11:04;;;;;;;14.38;9.57;;;15.10;99.90;;;;;;5337882;26;20000;-61
2024/04/09 09:13:30;;;;;;;13.82;10.27;;;15.10;99.90;;;;;;5336722;26;20008;-61
2024/04/09 09:15:56;;;;;;;15.10;10.85;;;15.20;99.90;;;;;;5338053;26;20009;-61
2024/04/09 09:18:23;;;;;;;16.38;11.05;;;15.10;99.90;;;;;;5335789;26;20005;-61
2024/04/09 09:21:02;;;;;;;15.65;11.20;;;15.10;99.90;;;;;;5343910;26;20011;-61
2024/04/09 09:23:28;;;;;;;16.90;11.13;;;15.10;99.90;;;;;;5335615;26;20016;-61
2024/04/09 09:25:55;;;;;;;14.55;10.32;;;15.10;99.90;;;;;;5329499;26;20009;-61
2024/04/09 09:28:22;;;;;;;13.93;10.27;;;15.10;99.90;;;;;;5342870;26;20012;-61
2024/04/09 09:30:48;;;;;;;16.02;11.35;;;15.10;99.90;;;;;;5337799;26;20496;-61
2024/04/09 09:33:29;;;;;;;15.77;9.80;;;15.10;99.90;;;;;;5342112;26;20051;-63
2024/04/09 09:35:55;;;;;;;;;;;15.10;99.90;;;;;;5337444;26;20462;-61
2024/04/09 09:38:28;;;;;;;14.07;9.80;;;15.10;99.90;;;;;;5327890;26;19956;-62
2024/04/09 09:40:54;;;;;;;16.15;9.90;;;15.10;99.90;;;;;;5326318;26;20029;-62
2024/04/09 09:43:22;;;;;;;17.17;10.60;;;15.10;99.90;;;;;;5332231;26;20000;-61
2024/04/09 09:45:48;;;;;;;18.83;10.27;;;15.10;99.90;;;;;;5323243;26;20377;-61
2024/04/09 09:48:19;;;;;;;15.77;10.15;;;15.10;99.90;;;;;;5332381;26;20317;-62
2024/04/09 09:50:45;;;;;;;;;;;15.10;99.90;;;;;;5331068;26;20546;-61
2024/04/09 09:53:11;;;;;;;14.93;10.68;;;15.10;99.90;;;;;;5336770;26;19937;-61
2024/04/09 09:55:39;;;;;;;17.73;11.23;;;15.10;99.90;;;;;;5331894;26;20008;-61
2024/04/09 09:58:08;;;;;;;15.20;10.45;;;15.10;99.90;;;;;;5325673;26;19996;-61
2024/04/09 10:00:37;;;;;;;14.02;9.35;;;15.10;99.90;;;;;;5321381;26;19996;-61
2024/04/09 10:03:04;;;;;;;15.55;10.30;;;15.10;99.90;;;;;;5323564;26;19997;-61
2024/04/09 10:05:37;;;;;;;13.23;9.77;;;15.10;99.90;;;;;;5332587;26;20469;-61
2024/04/09 10:08:26;;;;;;;17.30;11.50;;;15.10;99.90;;;;;;5326580;26;20013;-61
2024/04/09 10:13:25;;;;;;;20.58;11.75;;;15.10;99.90;;;;;;5347473;26;20027;-80
2024/04/09 10:15:55;;;;;;;17.45;11.13;;;15.10;99.90;;;;;;5307899;26;20015;-79
2024/04/09 10:18:34;;;;;;;14.48;9.63;;;15.10;99.90;;;;;;5352567;26;20083;-81
2024/04/09 10:21:01;;;;;;;16.65;10.70;;;15.20;99.90;;;;;;5364657;26;20000;-78
2024/04/09 10:23:26;;;;;;;16.88;10.98;;;15.20;99.90;;;;;;5366774;26;20016;-81
2024/04/09 10:25:56;;;;;;;14.48;11.05;;;15.10;99.90;;;;;;5356822;26;20000;-82
2024/04/09 10:28:28;;;;;;;14.93;10.80;;;15.10;99.90;;;;;;5372153;26;20011;-78
2024/04/09 10:30:58;;;;;;;14.80;9.63;;;15.10;99.90;;;;;;5371186;26;20029;-78
2024/04/09 10:33:30;;;;;;;13.98;9.75;;;15.00;99.90;;;;;;5362956;26;20059;-79
2024/04/09 10:35:56;;;;;;;10.43;6.90;;;15.00;99.90;;;;;;5371596;26;20036;-79
2024/04/09 10:38:24;;;;;;;10.45;6.57;;;14.90;99.90;;;;;;5346016;26;20000;-82
2024/04/09 10:40:50;;;;;;;9.38;6.03;;;14.90;99.90;;;;;;5375354;26;20000;-78
2024/04/09 10:43:16;;;;;;;6.72;5.25;;;14.90;99.90;;;;;;5382525;26;20069;-78
2024/04/09 10:45:42;;;;;;;8.02;5.72;;;14.80;99.90;;;;;;5337606;26;20000;-79
2024/04/09 10:48:08;;;;;;;7.32;5.50;;;14.80;99.90;;;;;;5336131;26;20000;-78
2024/04/09 10:50:34;;;;;;;10.00;5.82;;;14.70;99.90;;;;;;5356997;26;20014;-78
2024/04/09 10:53:00;;;;;;;8.45;4.97;;;14.70;99.90;;;;;;5347432;26;20044;-82
2024/04/09 10:55:27;;;;;;;8.20;5.35;;;14.70;99.90;;;;;;5367952;26;20470;-81
2024/04/09 10:57:53;;;;;;;6.72;4.22;;;14.60;99.90;;;;;;5388195;26;20028;-79
2024/04/09 11:00:21;;;;;;;5.18;3.17;;;14.60;99.90;;;;;;5373022;26;20000;-80
2024/04/09 11:02:47;;;;;;;4.70;3.13;;;14.50;99.90;;;;;;5349321;26;20353;-78
2024/04/09 11:05:16;;;;;;;5.97;3.00;;;14.50;99.90;;;;;;5384410;26;20011;-80
2024/04/09 11:07:43;;;;;;;4.85;2.50;;;14.50;99.90;;;;;;5342921;26;20000;-78
2024/04/09 11:10:13;;;;;;;6.22;2.47;;;14.40;99.90;;;;;;5369548;26;20004;-82
2024/04/09 11:12:59;;;;;;;6.90;2.55;;;14.40;99.90;;;;;;5382248;26;20023;-78
2024/04/09 11:15:25;;;;;;;4.35;2.40;;;14.40;99.90;;;;;;5319842;26;20000;-78
2024/04/09 11:17:51;;;;;;;6.22;2.58;;;14.30;99.90;;;;;;5374804;26;20024;-78
2024/04/09 11:20:20;;;;;;;4.13;2.30;;;14.30;99.90;;;;;;5342257;26;20008;-80
2024/04/09 11:22:50;;;;;;;5.05;2.05;;;14.20;99.90;;;;;;5346594;26;20000;-79
2024/04/09 11:25:20;;;;;;;;;;;14.20;99.90;;;;;;5342249;26;20015;-79
2024/04/09 11:27:50;;;;;;;3.43;1.20;;;14.20;99.90;;;;;;5372670;26;20345;-80
2024/04/09 11:30:24;;;;;;;1.52;0.90;;;14.10;99.90;;;;;;5366561;26;20008;-79
2024/04/09 11:32:54;;;;;;;2.38;0.80;;;13.90;99.90;;;;;;5379218;26;20454;-80
2024/04/09 11:35:21;;;;;;;2.63;0.70;;;13.80;99.90;;;;;;5393564;26;20015;-82
2024/04/09 11:37:51;;;;;;;3.72;0.80;;;13.70;99.90;;;;;;5346038;26;20000;-83
2024/04/09 11:40:21;;;;;;;2.42;0.73;;;13.60;99.90;;;;;;5381216;26;19996;-79
2024/04/09 11:42:54;;;;;;;5.30;1.00;;;13.50;99.90;;;;;;5344400;26;20001;-85
2024/04/09 11:45:31;;;;;;;3.08;1.10;;;13.50;99.90;;;;;;5350573;26;19996;-80
2024/04/09 11:47:57;;;;;;;2.65;0.90;;;13.50;99.90;;;;;;5350065;26;20348;-79
2024/04/09 11:50:25;;;;;;;4.80;1.08;;;13.50;99.90;;;;;;5371529;26;20000;-78
2024/04/09 11:52:51;;;;;;;3.35;0.95;;;13.50;99.90;;;;;;5355851;26;20004;-81
2024/04/09 11:55:17;;;;;;;6.55;1.38;;;13.40;99.90;;;;;;5375455;26;20012;-82
2024/04/09 11:57:44;;;;;;;4.00;1.30;;;13.40;99.90;;;;;;5344764;26;20535;-78
2024/04/09 12:00:12;;;;;;;5.10;1.20;;;13.40;99.90;;;;;;5315538;26;20011;-78
2024/04/09 12:02:44;;;;;;;3.67;1.20;;;13.40;99.90;;;;;;5390132;26;20046;-78
2024/04/09 12:05:14;;;;;;;4.40;1.42;;;13.30;99.90;;;;;;5390504;26;20015;-78
2024/04/09 12:07:43;;;;;;;4.77;1.40;;;13.40;99.90;;;;;;5343312;26;20342;-78
2024/04/09 12:10:10;;;;;;;5.30;1.70;;;13.30;99.90;;;;;;5371679;26;20000;-78
2024/04/09 12:12:36;;;;;;;6.63;1.40;;;13.40;99.90;;;;;;5366377;26;20085;-80
2024/04/09 12:15:05;;;;;;;7.10;2.00;;;13.40;99.90;;;;;;5367613;26;20022;-78
2024/04/09 12:17:31;;;;;;;7.43;1.80;;;13.40;99.90;;;;;;5344055;26;20098;-78
2024/04/09 12:19:57;;;;;;;5.07;2.63;;;13.40;99.90;;;;;;5346911;26;20005;-78
2024/04/09 12:22:23;;;;;;;9.48;3.90;;;13.40;99.90;;;;;;5390077;26;20019;-78
2024/04/09 12:24:49;;;;;;;5.90;3.00;;;13.50;99.90;;;;;;5344412;26;20008;-78
2024/04/09 12:27:15;;;;;;;5.18;2.67;;;13.50;99.90;;;;;;5347081;26;20000;-78
2024/04/09 12:29:41;;;;;;;9.05;3.20;;;13.50;99.90;;;;;;5370908;26;20085;-81
2024/04/09 12:32:08;;;;;;;5.47;2.80;;;13.60;99.90;;;;;;5375855;26;20713;-80
2024/04/09 12:34:35;;;;;;;5.45;2.55;;;13.50;99.90;;;;;;5373820;26;20081;-78
2024/04/09 12:37:00;;;;;;;6.85;3.17;;;13.60;99.90;;;;;;5370153;26;20018;-79
2024/04/09 12:39:30;;;;;;;6.15;2.58;;;13.60;99.90;;;;;;5378308;26;20001;-78
2024/04/09 12:41:58;;;;;;;9.32;2.67;;;13.60;99.90;;;;;;5344843;26;20012;-78
2024/04/09 12:44:24;;;;;;;4.88;2.58;;;13.60;99.90;;;;;;5345034;26;20000;-80